KSMX/SMX METAR and TAF weather

Enter ICAO airport designator
Station Type Date Time Source
KSMX METAR 2020/08/11 00:51 UTC NOAA

KSMX 110051Z 33008KT 10SM FEW008 19/13 A2992 RMK AO2 SLP134 T01890128


Station Type Date Time Source
KSMX Decoded METAR 2020/08/11 00:51 UTC NOAA

SANTA MARIA PUBLIC AIRPORT, CA, United States (KSMX) 34-54N 120-28W 74M
Aug 10, 2020 - 08:51 PM EDT / 2020.08.11 0051 UTC
Wind: from the NNW (330 degrees) at 9 MPH (8 KT):0
Visibility: 10 mile(s):0
Sky conditions: mostly clear
Temperature: 66.0 F (18.9 C)
Dew Point: 55.0 F (12.8 C)
Relative Humidity: 67%
Pressure (altimeter): 29.92 in. Hg (1013 hPa)
ob: KSMX 110051Z 33008KT 10SM FEW008 19/13 A2992 RMK AO2 SLP134 T01890128
cycle: 1

Station Type Date Time Source
KSMX TAF 2020/08/10 18:24 UTC NOAA

TAF KSMX 101720Z 1018/1118 00000KT P6SM FEW006
FM102000 31010KT P6SM SKC
FM110400 VRB03KT P6SM SKC
FM110600 VRB03KT 5SM BR OVC004
FM111100 00000KT 1/2SM FG VV002

Example: see airport list